sensor_id;sensor_type;location;lat;lon;timestamp;P1;durP1;ratioP1;P2;durP2;ratioP2
75496;SDS011;64074;47.540;19.072;2022-11-30T00:02:42;49.35;;;23.63;;
75496;SDS011;64074;47.540;19.072;2022-11-30T00:06:08;48.33;;;24.35;;
75496;SDS011;64074;47.540;19.072;2022-11-30T00:09:32;46.78;;;22.75;;
75496;SDS011;64074;47.540;19.072;2022-11-30T00:12:53;50.17;;;23.80;;
75496;SDS011;64074;47.540;19.072;2022-11-30T00:16:15;49.73;;;23.90;;
75496;SDS011;64074;47.540;19.072;2022-11-30T00:19:43;46.80;;;21.98;;
75496;SDS011;64074;47.540;19.072;2022-11-30T00:23:00;49.03;;;22.92;;
75496;SDS011;64074;47.540;19.072;2022-11-30T00:26:23;41.75;;;19.67;;
75496;SDS011;64074;47.540;19.072;2022-11-30T00:29:51;45.17;;;21.80;;
75496;SDS011;64074;47.540;19.072;2022-11-30T00:33:11;51.00;;;22.90;;
75496;SDS011;64074;47.540;19.072;2022-11-30T00:36:23;45.58;;;22.52;;
75496;SDS011;64074;47.540;19.072;2022-11-30T00:39:33;44.88;;;20.33;;
75496;SDS011;64074;47.540;19.072;2022-11-30T00:43:09;45.15;;;20.42;;
75496;SDS011;64074;47.540;19.072;2022-11-30T00:46:36;43.00;;;19.00;;
75496;SDS011;64074;47.540;19.072;2022-11-30T00:50:03;41.07;;;19.70;;
75496;SDS011;64074;47.540;19.072;2022-11-30T00:53:22;41.80;;;18.90;;
75496;SDS011;64074;47.540;19.072;2022-11-30T00:56:49;45.50;;;19.95;;
75496;SDS011;64074;47.540;19.072;2022-11-30T01:00:02;42.67;;;20.52;;
75496;SDS011;64074;47.540;19.072;2022-11-30T01:03:28;44.13;;;21.50;;
75496;SDS011;64074;47.540;19.072;2022-11-30T01:06:41;47.93;;;22.67;;
75496;SDS011;64074;47.540;19.072;2022-11-30T01:09:45;48.45;;;22.17;;
75496;SDS011;64074;47.540;19.072;2022-11-30T01:12:55;46.50;;;22.77;;
75496;SDS011;64074;47.540;19.072;2022-11-30T01:16:10;47.70;;;22.25;;
75496;SDS011;64074;47.540;19.072;2022-11-30T01:19:37;49.17;;;22.20;;
75496;SDS011;64074;47.540;19.072;2022-11-30T01:22:58;50.13;;;22.13;;
75496;SDS011;64074;47.540;19.072;2022-11-30T01:26:19;47.17;;;22.52;;
75496;SDS011;64074;47.540;19.072;2022-11-30T01:29:40;46.70;;;22.10;;
75496;SDS011;64074;47.540;19.072;2022-11-30T01:33:02;48.67;;;21.85;;
75496;SDS011;64074;47.540;19.072;2022-11-30T01:36:25;48.08;;;21.80;;
75496;SDS011;64074;47.540;19.072;2022-11-30T01:39:47;41.97;;;19.90;;
75496;SDS011;64074;47.540;19.072;2022-11-30T01:42:56;43.78;;;20.58;;
75496;SDS011;64074;47.540;19.072;2022-11-30T01:46:05;41.10;;;19.77;;
75496;SDS011;64074;47.540;19.072;2022-11-30T01:49:49;45.95;;;20.15;;
75496;SDS011;64074;47.540;19.072;2022-11-30T01:53:15;41.88;;;20.00;;
75496;SDS011;64074;47.540;19.072;2022-11-30T01:56:26;41.63;;;20.07;;
75496;SDS011;64074;47.540;19.072;2022-11-30T01:59:35;38.22;;;19.13;;
75496;SDS011;64074;47.540;19.072;2022-11-30T02:02:51;41.50;;;19.10;;
75496;SDS011;64074;47.540;19.072;2022-11-30T02:05:57;39.50;;;18.67;;
75496;SDS011;64074;47.540;19.072;2022-11-30T02:09:01;37.88;;;18.13;;
75496;SDS011;64074;47.540;19.072;2022-11-30T02:12:07;40.13;;;18.57;;
75496;SDS011;64074;47.540;19.072;2022-11-30T02:15:20;41.53;;;19.77;;
75496;SDS011;64074;47.540;19.072;2022-11-30T02:18:42;42.47;;;19.63;;
75496;SDS011;64074;47.540;19.072;2022-11-30T02:33:44;39.55;;;18.10;;
75496;SDS011;64074;47.540;19.072;2022-11-30T02:37:02;39.05;;;17.70;;
75496;SDS011;64074;47.540;19.072;2022-11-30T02:40:16;40.72;;;18.30;;
75496;SDS011;64074;47.540;19.072;2022-11-30T02:43:40;38.65;;;18.25;;
75496;SDS011;64074;47.540;19.072;2022-11-30T02:47:30;40.97;;;17.97;;
75496;SDS011;64074;47.540;19.072;2022-11-30T02:51:26;37.55;;;17.02;;
75496;SDS011;64074;47.540;19.072;2022-11-30T02:54:59;43.28;;;18.75;;
75496;SDS011;64074;47.540;19.072;2022-11-30T02:58:14;38.92;;;18.58;;
75496;SDS011;64074;47.540;19.072;2022-11-30T03:01:37;39.55;;;17.50;;
75496;SDS011;64074;47.540;19.072;2022-11-30T03:04:54;40.67;;;18.20;;
75496;SDS011;64074;47.540;19.072;2022-11-30T03:08:15;37.50;;;17.42;;
75496;SDS011;64074;47.540;19.072;2022-11-30T03:11:18;35.90;;;15.95;;
75496;SDS011;64074;47.540;19.072;2022-11-30T03:14:24;36.78;;;17.63;;
75496;SDS011;64074;47.540;19.072;2022-11-30T03:17:27;34.95;;;16.88;;
75496;SDS011;64074;47.540;19.072;2022-11-30T03:20:31;35.90;;;16.67;;
75496;SDS011;64074;47.540;19.072;2022-11-30T03:23:40;34.83;;;16.70;;
75496;SDS011;64074;47.540;19.072;2022-11-30T03:26:54;35.30;;;16.70;;
75496;SDS011;64074;47.540;19.072;2022-11-30T03:30:15;34.85;;;16.35;;
75496;SDS011;64074;47.540;19.072;2022-11-30T03:33:24;34.88;;;16.73;;
75496;SDS011;64074;47.540;19.072;2022-11-30T03:36:29;33.47;;;16.17;;
75496;SDS011;64074;47.540;19.072;2022-11-30T03:39:35;34.65;;;16.20;;
75496;SDS011;64074;47.540;19.072;2022-11-30T03:42:48;34.75;;;16.15;;
75496;SDS011;64074;47.540;19.072;2022-11-30T03:46:02;32.17;;;15.65;;
75496;SDS011;64074;47.540;19.072;2022-11-30T03:49:24;30.42;;;14.93;;
75496;SDS011;64074;47.540;19.072;2022-11-30T03:52:32;29.67;;;14.53;;
75496;SDS011;64074;47.540;19.072;2022-11-30T03:55:41;29.83;;;14.80;;
75496;SDS011;64074;47.540;19.072;2022-11-30T03:58:58;34.95;;;16.25;;
75496;SDS011;64074;47.540;19.072;2022-11-30T04:02:20;29.85;;;14.77;;
75496;SDS011;64074;47.540;19.072;2022-11-30T04:05:41;32.25;;;14.63;;
75496;SDS011;64074;47.540;19.072;2022-11-30T04:09:04;29.60;;;14.30;;
75496;SDS011;64074;47.540;19.072;2022-11-30T04:12:25;29.08;;;14.95;;
75496;SDS011;64074;47.540;19.072;2022-11-30T04:15:52;28.67;;;14.15;;
75496;SDS011;64074;47.540;19.072;2022-11-30T04:19:16;27.63;;;13.23;;
75496;SDS011;64074;47.540;19.072;2022-11-30T04:22:26;26.20;;;12.55;;
75496;SDS011;64074;47.540;19.072;2022-11-30T04:25:53;27.67;;;12.33;;
75496;SDS011;64074;47.540;19.072;2022-11-30T04:29:18;25.88;;;12.60;;
75496;SDS011;64074;47.540;19.072;2022-11-30T04:32:38;26.70;;;13.15;;
75496;SDS011;64074;47.540;19.072;2022-11-30T04:36:06;26.55;;;12.43;;
75496;SDS011;64074;47.540;19.072;2022-11-30T04:39:27;27.02;;;11.80;;
75496;SDS011;64074;47.540;19.072;2022-11-30T04:42:49;23.47;;;10.77;;
75496;SDS011;64074;47.540;19.072;2022-11-30T04:46:10;22.45;;;10.73;;
75496;SDS011;64074;47.540;19.072;2022-11-30T04:49:31;23.85;;;11.27;;
75496;SDS011;64074;47.540;19.072;2022-11-30T04:52:55;23.08;;;10.52;;
75496;SDS011;64074;47.540;19.072;2022-11-30T04:56:19;25.10;;;11.50;;
75496;SDS011;64074;47.540;19.072;2022-11-30T04:59:40;22.53;;;10.40;;
75496;SDS011;64074;47.540;19.072;2022-11-30T05:03:04;21.70;;;10.52;;
75496;SDS011;64074;47.540;19.072;2022-11-30T05:06:24;26.02;;;11.20;;
75496;SDS011;64074;47.540;19.072;2022-11-30T05:09:49;23.55;;;10.82;;
75496;SDS011;64074;47.540;19.072;2022-11-30T05:13:09;21.02;;;9.93;;
75496;SDS011;64074;47.540;19.072;2022-11-30T05:16:29;18.60;;;9.30;;
75496;SDS011;64074;47.540;19.072;2022-11-30T05:19:41;20.70;;;9.93;;
75496;SDS011;64074;47.540;19.072;2022-11-30T05:22:56;24.45;;;11.13;;
75496;SDS011;64074;47.540;19.072;2022-11-30T05:26:04;22.55;;;10.55;;
75496;SDS011;64074;47.540;19.072;2022-11-30T05:29:13;24.75;;;11.13;;
75496;SDS011;64074;47.540;19.072;2022-11-30T05:32:34;21.00;;;10.13;;
75496;SDS011;64074;47.540;19.072;2022-11-30T05:35:44;22.58;;;10.57;;
75496;SDS011;64074;47.540;19.072;2022-11-30T05:39:17;23.10;;;10.82;;
75496;SDS011;64074;47.540;19.072;2022-11-30T05:42:44;20.85;;;10.65;;
75496;SDS011;64074;47.540;19.072;2022-11-30T05:45:58;23.20;;;10.15;;
75496;SDS011;64074;47.540;19.072;2022-11-30T05:49:25;23.87;;;11.23;;
75496;SDS011;64074;47.540;19.072;2022-11-30T05:52:52;23.10;;;10.48;;
75496;SDS011;64074;47.540;19.072;2022-11-30T05:56:15;21.67;;;10.60;;
75496;SDS011;64074;47.540;19.072;2022-11-30T05:59:34;21.17;;;10.40;;
75496;SDS011;64074;47.540;19.072;2022-11-30T06:02:56;19.48;;;10.48;;
75496;SDS011;64074;47.540;19.072;2022-11-30T06:06:19;38.60;;;13.00;;
75496;SDS011;64074;47.540;19.072;2022-11-30T06:09:43;23.45;;;10.40;;
75496;SDS011;64074;47.540;19.072;2022-11-30T06:13:07;20.10;;;9.90;;
75496;SDS011;64074;47.540;19.072;2022-11-30T06:16:36;21.70;;;10.75;;
75496;SDS011;64074;47.540;19.072;2022-11-30T06:19:52;22.90;;;9.48;;
75496;SDS011;64074;47.540;19.072;2022-11-30T06:23:12;26.80;;;10.57;;
75496;SDS011;64074;47.540;19.072;2022-11-30T06:26:21;20.33;;;9.35;;
75496;SDS011;64074;47.540;19.072;2022-11-30T06:29:32;22.48;;;10.18;;
75496;SDS011;64074;47.540;19.072;2022-11-30T06:32:49;27.73;;;9.88;;
75496;SDS011;64074;47.540;19.072;2022-11-30T06:35:56;22.92;;;10.32;;
75496;SDS011;64074;47.540;19.072;2022-11-30T06:39:07;22.33;;;10.60;;
75496;SDS011;64074;47.540;19.072;2022-11-30T06:42:24;23.73;;;9.85;;
75496;SDS011;64074;47.540;19.072;2022-11-30T06:45:53;21.48;;;10.80;;
75496;SDS011;64074;47.540;19.072;2022-11-30T06:49:11;17.23;;;8.77;;
75496;SDS011;64074;47.540;19.072;2022-11-30T06:52:28;20.92;;;9.95;;
75496;SDS011;64074;47.540;19.072;2022-11-30T07:00:15;18.92;;;8.77;;
75496;SDS011;64074;47.540;19.072;2022-11-30T07:07:18;17.17;;;8.20;;
75496;SDS011;64074;47.540;19.072;2022-11-30T07:10:29;23.90;;;8.75;;
75496;SDS011;64074;47.540;19.072;2022-11-30T07:13:46;18.13;;;9.00;;
75496;SDS011;64074;47.540;19.072;2022-11-30T07:21:06;16.63;;;8.10;;
75496;SDS011;64074;47.540;19.072;2022-11-30T07:29:23;19.52;;;9.18;;
75496;SDS011;64074;47.540;19.072;2022-11-30T07:32:31;22.07;;;9.97;;
75496;SDS011;64074;47.540;19.072;2022-11-30T07:40:04;24.55;;;11.45;;
75496;SDS011;64074;47.540;19.072;2022-11-30T07:47:37;21.27;;;9.98;;
75496;SDS011;64074;47.540;19.072;2022-11-30T07:51:04;80.47;;;45.43;;
75496;SDS011;64074;47.540;19.072;2022-11-30T07:54:20;20.95;;;10.63;;
75496;SDS011;64074;47.540;19.072;2022-11-30T07:57:30;18.83;;;8.90;;
75496;SDS011;64074;47.540;19.072;2022-11-30T08:00:42;19.70;;;9.93;;
75496;SDS011;64074;47.540;19.072;2022-11-30T08:03:52;20.73;;;9.13;;
75496;SDS011;64074;47.540;19.072;2022-11-30T08:23:45;17.63;;;8.85;;
75496;SDS011;64074;47.540;19.072;2022-11-30T08:35:44;18.20;;;8.77;;
75496;SDS011;64074;47.540;19.072;2022-11-30T08:38:58;16.98;;;8.63;;
75496;SDS011;64074;47.540;19.072;2022-11-30T08:42:09;19.30;;;9.13;;
75496;SDS011;64074;47.540;19.072;2022-11-30T08:50:43;18.88;;;8.82;;
75496;SDS011;64074;47.540;19.072;2022-11-30T08:53:55;19.83;;;9.60;;
75496;SDS011;64074;47.540;19.072;2022-11-30T09:01:11;14.95;;;8.02;;
75496;SDS011;64074;47.540;19.072;2022-11-30T09:04:42;18.00;;;8.30;;
75496;SDS011;64074;47.540;19.072;2022-11-30T09:07:47;16.80;;;8.85;;
75496;SDS011;64074;47.540;19.072;2022-11-30T09:21:58;20.63;;;8.80;;
75496;SDS011;64074;47.540;19.072;2022-11-30T09:28:57;18.80;;;8.82;;
75496;SDS011;64074;47.540;19.072;2022-11-30T09:32:24;18.50;;;9.15;;
75496;SDS011;64074;47.540;19.072;2022-11-30T09:35:56;20.92;;;9.15;;
75496;SDS011;64074;47.540;19.072;2022-11-30T09:39:10;16.23;;;8.43;;
75496;SDS011;64074;47.540;19.072;2022-11-30T10:02:50;16.27;;;8.03;;
75496;SDS011;64074;47.540;19.072;2022-11-30T10:06:03;12.43;;;7.35;;
75496;SDS011;64074;47.540;19.072;2022-11-30T10:09:24;14.57;;;6.28;;
75496;SDS011;64074;47.540;19.072;2022-11-30T10:17:30;12.68;;;6.90;;
75496;SDS011;64074;47.540;19.072;2022-11-30T10:20:40;12.03;;;6.17;;
75496;SDS011;64074;47.540;19.072;2022-11-30T10:24:02;12.77;;;6.80;;
75496;SDS011;64074;47.540;19.072;2022-11-30T10:35:49;16.67;;;7.28;;
75496;SDS011;64074;47.540;19.072;2022-11-30T10:42:48;11.93;;;6.20;;
75496;SDS011;64074;47.540;19.072;2022-11-30T10:50:26;11.80;;;5.78;;
75496;SDS011;64074;47.540;19.072;2022-11-30T10:53:40;12.55;;;5.93;;
75496;SDS011;64074;47.540;19.072;2022-11-30T11:01:51;12.10;;;5.72;;
75496;SDS011;64074;47.540;19.072;2022-11-30T11:05:13;10.90;;;5.50;;
75496;SDS011;64074;47.540;19.072;2022-11-30T11:18:52;11.10;;;5.50;;
75496;SDS011;64074;47.540;19.072;2022-11-30T11:26:51;13.57;;;5.70;;
75496;SDS011;64074;47.540;19.072;2022-11-30T11:39:23;12.80;;;6.20;;
75496;SDS011;64074;47.540;19.072;2022-11-30T11:42:40;14.00;;;6.38;;
75496;SDS011;64074;47.540;19.072;2022-11-30T12:00:49;14.07;;;6.82;;
75496;SDS011;64074;47.540;19.072;2022-11-30T12:12:11;14.52;;;6.85;;
75496;SDS011;64074;47.540;19.072;2022-11-30T12:15:27;27.77;;;13.43;;
75496;SDS011;64074;47.540;19.072;2022-11-30T13:10:39;12.43;;;6.95;;
75496;SDS011;64074;47.540;19.072;2022-11-30T13:13:50;13.55;;;7.22;;
75496;SDS011;64074;47.540;19.072;2022-11-30T13:17:14;11.87;;;6.33;;
75496;SDS011;64074;47.540;19.072;2022-11-30T13:24:44;10.52;;;6.07;;
75496;SDS011;64074;47.540;19.072;2022-11-30T13:40:36;12.88;;;6.50;;
75496;SDS011;64074;47.540;19.072;2022-11-30T13:49:21;12.95;;;4.57;;
75496;SDS011;64074;47.540;19.072;2022-11-30T13:59:33;5.85;;;2.83;;
75496;SDS011;64074;47.540;19.072;2022-11-30T14:10:26;8.80;;;2.83;;
75496;SDS011;64074;47.540;19.072;2022-11-30T14:19:04;33.58;;;13.07;;
75496;SDS011;64074;47.540;19.072;2022-11-30T14:25:52;10.27;;;3.20;;
75496;SDS011;64074;47.540;19.072;2022-11-30T14:29:36;7.97;;;3.60;;
75496;SDS011;64074;47.540;19.072;2022-11-30T14:32:56;4.90;;;2.70;;
75496;SDS011;64074;47.540;19.072;2022-11-30T14:36:16;7.38;;;2.90;;
75496;SDS011;64074;47.540;19.072;2022-11-30T14:39:37;9.52;;;4.20;;
75496;SDS011;64074;47.540;19.072;2022-11-30T14:46:51;10.80;;;3.78;;
75496;SDS011;64074;47.540;19.072;2022-11-30T14:50:02;11.03;;;3.70;;
75496;SDS011;64074;47.540;19.072;2022-11-30T14:59:53;7.10;;;3.25;;
75496;SDS011;64074;47.540;19.072;2022-11-30T15:03:04;8.35;;;3.70;;
75496;SDS011;64074;47.540;19.072;2022-11-30T15:06:30;9.17;;;3.90;;
75496;SDS011;64074;47.540;19.072;2022-11-30T15:09:47;7.63;;;3.42;;
75496;SDS011;64074;47.540;19.072;2022-11-30T15:13:06;11.23;;;3.22;;
75496;SDS011;64074;47.540;19.072;2022-11-30T15:16:33;11.60;;;4.05;;
75496;SDS011;64074;47.540;19.072;2022-11-30T15:19:56;7.70;;;3.28;;
75496;SDS011;64074;47.540;19.072;2022-11-30T15:23:14;6.67;;;3.70;;
75496;SDS011;64074;47.540;19.072;2022-11-30T15:26:37;10.98;;;4.95;;
75496;SDS011;64074;47.540;19.072;2022-11-30T15:29:58;15.13;;;6.95;;
75496;SDS011;64074;47.540;19.072;2022-11-30T15:33:22;14.98;;;7.15;;
75496;SDS011;64074;47.540;19.072;2022-11-30T15:36:43;13.18;;;6.43;;
75496;SDS011;64074;47.540;19.072;2022-11-30T15:39:55;15.07;;;6.87;;
75496;SDS011;64074;47.540;19.072;2022-11-30T15:43:02;17.38;;;8.02;;
75496;SDS011;64074;47.540;19.072;2022-11-30T15:46:28;16.75;;;8.13;;
75496;SDS011;64074;47.540;19.072;2022-11-30T15:56:53;17.80;;;8.17;;
75496;SDS011;64074;47.540;19.072;2022-11-30T16:00:27;21.35;;;9.70;;
75496;SDS011;64074;47.540;19.072;2022-11-30T16:07:14;18.08;;;8.68;;
75496;SDS011;64074;47.540;19.072;2022-11-30T16:10:28;14.95;;;7.68;;
75496;SDS011;64074;47.540;19.072;2022-11-30T16:13:46;22.53;;;10.77;;
75496;SDS011;64074;47.540;19.072;2022-11-30T16:17:09;18.60;;;10.45;;
75496;SDS011;64074;47.540;19.072;2022-11-30T16:20:28;23.45;;;10.85;;
75496;SDS011;64074;47.540;19.072;2022-11-30T16:23:48;20.55;;;10.52;;
75496;SDS011;64074;47.540;19.072;2022-11-30T16:27:18;19.13;;;9.23;;
75496;SDS011;64074;47.540;19.072;2022-11-30T16:30:31;16.00;;;8.57;;
75496;SDS011;64074;47.540;19.072;2022-11-30T16:33:50;17.58;;;9.25;;
75496;SDS011;64074;47.540;19.072;2022-11-30T16:37:10;25.10;;;10.25;;
75496;SDS011;64074;47.540;19.072;2022-11-30T16:40:32;19.52;;;9.90;;
75496;SDS011;64074;47.540;19.072;2022-11-30T16:43:51;22.10;;;10.23;;
75496;SDS011;64074;47.540;19.072;2022-11-30T16:46:56;18.90;;;8.63;;
75496;SDS011;64074;47.540;19.072;2022-11-30T16:50:05;15.45;;;8.32;;
75496;SDS011;64074;47.540;19.072;2022-11-30T16:53:26;19.40;;;8.70;;
75496;SDS011;64074;47.540;19.072;2022-11-30T16:56:48;18.73;;;8.70;;
75496;SDS011;64074;47.540;19.072;2022-11-30T17:00:11;17.55;;;9.60;;
75496;SDS011;64074;47.540;19.072;2022-11-30T17:03:28;16.57;;;8.43;;
75496;SDS011;64074;47.540;19.072;2022-11-30T17:06:40;23.13;;;9.43;;
75496;SDS011;64074;47.540;19.072;2022-11-30T17:09:53;20.63;;;9.65;;
75496;SDS011;64074;47.540;19.072;2022-11-30T17:12:56;21.55;;;9.60;;
75496;SDS011;64074;47.540;19.072;2022-11-30T17:16:07;20.27;;;10.02;;
75496;SDS011;64074;47.540;19.072;2022-11-30T17:19:32;17.87;;;9.63;;
75496;SDS011;64074;47.540;19.072;2022-11-30T17:22:59;20.52;;;10.15;;
75496;SDS011;64074;47.540;19.072;2022-11-30T17:26:17;21.35;;;10.10;;
75496;SDS011;64074;47.540;19.072;2022-11-30T17:29:42;22.95;;;9.80;;
75496;SDS011;64074;47.540;19.072;2022-11-30T17:32:57;28.17;;;11.38;;
75496;SDS011;64074;47.540;19.072;2022-11-30T17:36:01;28.10;;;10.57;;
75496;SDS011;64074;47.540;19.072;2022-11-30T17:39:14;28.20;;;12.20;;
75496;SDS011;64074;47.540;19.072;2022-11-30T17:42:50;29.92;;;14.20;;
75496;SDS011;64074;47.540;19.072;2022-11-30T17:46:17;179.80;;;74.13;;
75496;SDS011;64074;47.540;19.072;2022-11-30T17:49:35;31.80;;;14.00;;
75496;SDS011;64074;47.540;19.072;2022-11-30T17:52:59;27.97;;;12.83;;
75496;SDS011;64074;47.540;19.072;2022-11-30T17:56:27;32.03;;;13.85;;
75496;SDS011;64074;47.540;19.072;2022-11-30T17:59:43;30.77;;;14.57;;
75496;SDS011;64074;47.540;19.072;2022-11-30T18:03:05;31.70;;;13.30;;
75496;SDS011;64074;47.540;19.072;2022-11-30T18:06:29;70.57;;;41.20;;
75496;SDS011;64074;47.540;19.072;2022-11-30T18:09:47;48.17;;;28.00;;
75496;SDS011;64074;47.540;19.072;2022-11-30T18:13:05;77.82;;;42.50;;
75496;SDS011;64074;47.540;19.072;2022-11-30T18:16:33;58.10;;;29.98;;
75496;SDS011;64074;47.540;19.072;2022-11-30T18:19:54;48.08;;;24.70;;
75496;SDS011;64074;47.540;19.072;2022-11-30T18:23:08;79.38;;;36.95;;
75496;SDS011;64074;47.540;19.072;2022-11-30T18:26:16;76.10;;;37.30;;
75496;SDS011;64074;47.540;19.072;2022-11-30T18:29:28;54.35;;;26.85;;
75496;SDS011;64074;47.540;19.072;2022-11-30T18:32:42;45.08;;;21.60;;
75496;SDS011;64074;47.540;19.072;2022-11-30T18:36:03;37.83;;;16.95;;
75496;SDS011;64074;47.540;19.072;2022-11-30T18:39:25;33.35;;;14.70;;
75496;SDS011;64074;47.540;19.072;2022-11-30T18:42:45;33.57;;;14.97;;
75496;SDS011;64074;47.540;19.072;2022-11-30T18:46:07;31.75;;;14.48;;
75496;SDS011;64074;47.540;19.072;2022-11-30T18:49:18;31.70;;;15.00;;
75496;SDS011;64074;47.540;19.072;2022-11-30T18:52:29;31.23;;;15.50;;
75496;SDS011;64074;47.540;19.072;2022-11-30T18:56:06;31.27;;;14.60;;
75496;SDS011;64074;47.540;19.072;2022-11-30T18:59:37;24.70;;;13.90;;
75496;SDS011;64074;47.540;19.072;2022-11-30T19:02:47;27.20;;;14.00;;
75496;SDS011;64074;47.540;19.072;2022-11-30T19:06:11;33.60;;;15.35;;
75496;SDS011;64074;47.540;19.072;2022-11-30T19:09:27;33.90;;;17.38;;
75496;SDS011;64074;47.540;19.072;2022-11-30T19:13:02;32.45;;;16.55;;
75496;SDS011;64074;47.540;19.072;2022-11-30T19:16:32;30.70;;;15.97;;
75496;SDS011;64074;47.540;19.072;2022-11-30T19:19:48;35.00;;;17.63;;
75496;SDS011;64074;47.540;19.072;2022-11-30T19:23:05;48.00;;;29.98;;
75496;SDS011;64074;47.540;19.072;2022-11-30T19:26:33;33.55;;;19.20;;
75496;SDS011;64074;47.540;19.072;2022-11-30T19:30:00;35.03;;;17.55;;
75496;SDS011;64074;47.540;19.072;2022-11-30T19:33:18;35.20;;;17.87;;
75496;SDS011;64074;47.540;19.072;2022-11-30T19:36:41;36.90;;;17.35;;
75496;SDS011;64074;47.540;19.072;2022-11-30T19:40:05;33.47;;;17.63;;
75496;SDS011;64074;47.540;19.072;2022-11-30T19:43:33;37.90;;;20.33;;
75496;SDS011;64074;47.540;19.072;2022-11-30T19:46:55;40.75;;;19.40;;
75496;SDS011;64074;47.540;19.072;2022-11-30T19:50:12;37.63;;;18.00;;
75496;SDS011;64074;47.540;19.072;2022-11-30T19:53:34;33.58;;;18.13;;
75496;SDS011;64074;47.540;19.072;2022-11-30T19:56:55;34.63;;;17.38;;
75496;SDS011;64074;47.540;19.072;2022-11-30T20:00:17;37.17;;;18.75;;
75496;SDS011;64074;47.540;19.072;2022-11-30T20:03:40;35.15;;;18.15;;
75496;SDS011;64074;47.540;19.072;2022-11-30T20:07:03;37.00;;;17.90;;
75496;SDS011;64074;47.540;19.072;2022-11-30T20:10:25;37.05;;;18.77;;
75496;SDS011;64074;47.540;19.072;2022-11-30T20:13:47;34.33;;;18.42;;
75496;SDS011;64074;47.540;19.072;2022-11-30T20:17:11;35.78;;;18.25;;
75496;SDS011;64074;47.540;19.072;2022-11-30T20:20:31;37.53;;;19.33;;
75496;SDS011;64074;47.540;19.072;2022-11-30T20:23:55;37.73;;;17.70;;
75496;SDS011;64074;47.540;19.072;2022-11-30T20:27:16;32.72;;;16.98;;
75496;SDS011;64074;47.540;19.072;2022-11-30T20:30:37;34.40;;;16.88;;
75496;SDS011;64074;47.540;19.072;2022-11-30T20:33:57;32.03;;;16.83;;
75496;SDS011;64074;47.540;19.072;2022-11-30T20:37:24;38.88;;;17.38;;
75496;SDS011;64074;47.540;19.072;2022-11-30T20:40:37;36.07;;;17.87;;
75496;SDS011;64074;47.540;19.072;2022-11-30T20:43:45;32.67;;;17.45;;
75496;SDS011;64074;47.540;19.072;2022-11-30T20:46:53;35.45;;;18.40;;
75496;SDS011;64074;47.540;19.072;2022-11-30T20:50:03;71.18;;;37.45;;
75496;SDS011;64074;47.540;19.072;2022-11-30T20:53:25;41.53;;;19.75;;
75496;SDS011;64074;47.540;19.072;2022-11-30T20:56:34;42.80;;;21.87;;
75496;SDS011;64074;47.540;19.072;2022-11-30T20:59:39;44.95;;;21.70;;
75496;SDS011;64074;47.540;19.072;2022-11-30T21:02:46;42.85;;;22.65;;
75496;SDS011;64074;47.540;19.072;2022-11-30T21:05:57;48.10;;;23.40;;
75496;SDS011;64074;47.540;19.072;2022-11-30T21:09:14;45.45;;;21.95;;
75496;SDS011;64074;47.540;19.072;2022-11-30T21:12:26;47.23;;;21.90;;
75496;SDS011;64074;47.540;19.072;2022-11-30T21:15:29;45.35;;;23.65;;
75496;SDS011;64074;47.540;19.072;2022-11-30T21:18:43;51.70;;;23.70;;
75496;SDS011;64074;47.540;19.072;2022-11-30T21:22:06;46.85;;;22.38;;
75496;SDS011;64074;47.540;19.072;2022-11-30T21:25:14;48.05;;;23.98;;
75496;SDS011;64074;47.540;19.072;2022-11-30T21:28:25;52.23;;;23.77;;
75496;SDS011;64074;47.540;19.072;2022-11-30T21:31:33;48.05;;;24.13;;
75496;SDS011;64074;47.540;19.072;2022-11-30T21:34:42;52.13;;;25.05;;
75496;SDS011;64074;47.540;19.072;2022-11-30T21:37:45;49.33;;;23.63;;
75496;SDS011;64074;47.540;19.072;2022-11-30T21:40:53;48.38;;;23.77;;
75496;SDS011;64074;47.540;19.072;2022-11-30T21:44:04;46.33;;;23.40;;
75496;SDS011;64074;47.540;19.072;2022-11-30T21:47:28;47.83;;;22.63;;
75496;SDS011;64074;47.540;19.072;2022-11-30T21:51:01;44.97;;;24.20;;
75496;SDS011;64074;47.540;19.072;2022-11-30T21:54:16;44.83;;;21.63;;
75496;SDS011;64074;47.540;19.072;2022-11-30T21:57:31;42.45;;;22.45;;
75496;SDS011;64074;47.540;19.072;2022-11-30T22:00:54;49.43;;;23.03;;
75496;SDS011;64074;47.540;19.072;2022-11-30T22:04:16;44.22;;;22.77;;
75496;SDS011;64074;47.540;19.072;2022-11-30T22:07:38;45.92;;;22.52;;
75496;SDS011;64074;47.540;19.072;2022-11-30T22:11:01;44.70;;;22.63;;
75496;SDS011;64074;47.540;19.072;2022-11-30T22:14:23;48.47;;;24.02;;
75496;SDS011;64074;47.540;19.072;2022-11-30T22:17:46;46.20;;;23.57;;
75496;SDS011;64074;47.540;19.072;2022-11-30T22:24:30;45.85;;;23.83;;
75496;SDS011;64074;47.540;19.072;2022-11-30T22:27:55;46.55;;;24.17;;
75496;SDS011;64074;47.540;19.072;2022-11-30T22:31:14;48.00;;;25.27;;
75496;SDS011;64074;47.540;19.072;2022-11-30T22:34:36;52.73;;;25.10;;
75496;SDS011;64074;47.540;19.072;2022-11-30T22:38:01;48.95;;;24.13;;
75496;SDS011;64074;47.540;19.072;2022-11-30T22:41:24;51.22;;;23.92;;
75496;SDS011;64074;47.540;19.072;2022-11-30T22:44:44;53.78;;;24.98;;
75496;SDS011;64074;47.540;19.072;2022-11-30T22:48:04;56.58;;;26.83;;
75496;SDS011;64074;47.540;19.072;2022-11-30T22:51:25;57.07;;;27.77;;
75496;SDS011;64074;47.540;19.072;2022-11-30T22:54:45;58.53;;;26.67;;
75496;SDS011;64074;47.540;19.072;2022-11-30T22:58:05;52.67;;;25.23;;
75496;SDS011;64074;47.540;19.072;2022-11-30T23:01:26;46.63;;;23.77;;
75496;SDS011;64074;47.540;19.072;2022-11-30T23:04:52;49.55;;;23.55;;
75496;SDS011;64074;47.540;19.072;2022-11-30T23:08:00;41.23;;;21.80;;
75496;SDS011;64074;47.540;19.072;2022-11-30T23:11:10;44.17;;;22.58;;
75496;SDS011;64074;47.540;19.072;2022-11-30T23:14:25;46.03;;;21.67;;
75496;SDS011;64074;47.540;19.072;2022-11-30T23:17:39;42.08;;;21.20;;
75496;SDS011;64074;47.540;19.072;2022-11-30T23:20:54;45.50;;;22.23;;
75496;SDS011;64074;47.540;19.072;2022-11-30T23:24:01;42.47;;;21.20;;
75496;SDS011;64074;47.540;19.072;2022-11-30T23:27:14;45.13;;;22.27;;
75496;SDS011;64074;47.540;19.072;2022-11-30T23:30:28;45.38;;;21.98;;
75496;SDS011;64074;47.540;19.072;2022-11-30T23:33:37;44.95;;;22.40;;
75496;SDS011;64074;47.540;19.072;2022-11-30T23:36:49;49.20;;;23.08;;
75496;SDS011;64074;47.540;19.072;2022-11-30T23:40:02;44.87;;;21.90;;
75496;SDS011;64074;47.540;19.072;2022-11-30T23:43:12;44.47;;;21.55;;
75496;SDS011;64074;47.540;19.072;2022-11-30T23:46:21;38.67;;;19.33;;
75496;SDS011;64074;47.540;19.072;2022-11-30T23:49:41;33.72;;;15.93;;
75496;SDS011;64074;47.540;19.072;2022-11-30T23:53:02;28.75;;;13.82;;
75496;SDS011;64074;47.540;19.072;2022-11-30T23:56:28;26.93;;;13.83;;
75496;SDS011;64074;47.540;19.072;2022-11-30T23:59:48;26.02;;;13.07;;
